Time;durP1;ratioP1;P1;durP2;ratioP2;P2;SDS_P1;SDS_P2;PMS_P1;PMS_P2;Temp;Humidity;BMP_temperature;BMP_pressure;BME280_temperature;BME280_humidity;BME280_pressure;Samples;Min_cycle;Max_cycle;Signal;HPM_P1;HPM_P2
2023/03/12 00:00:16;;;;;;;1.60;1.10;;;1.00;99.90;;;;;;5005922;28;20263;-73
2023/03/12 00:02:43;;;;;;;1.53;1.13;;;1.00;99.90;;;;;;5005908;28;20263;-76
2023/03/12 00:05:11;;;;;;;2.20;1.07;;;1.00;99.90;;;;;;5005977;28;20305;-73
2023/03/12 00:07:38;;;;;;;1.00;0.93;;;1.00;99.90;;;;;;5005874;28;20307;-75
2023/03/12 00:10:06;;;;;;;1.13;1.03;;;1.00;99.90;;;;;;5005227;28;20591;-73
2023/03/12 00:12:34;;;;;;;2.03;1.40;;;1.00;99.90;;;;;;5005746;28;20296;-73
2023/03/12 00:15:01;;;;;;;1.30;1.03;;;1.00;99.90;;;;;;5004973;28;20249;-73
2023/03/12 00:17:29;;;;;;;2.90;1.17;;;1.00;99.90;;;;;;5005799;28;20343;-73
2023/03/12 00:19:56;;;;;;;1.87;1.33;;;1.00;99.90;;;;;;5005457;28;20301;-73
2023/03/12 00:22:24;;;;;;;1.07;1.07;;;1.00;99.90;;;;;;5005552;28;20663;-73
2023/03/12 00:24:52;;;;;;;1.37;1.07;;;1.00;99.90;;;;;;5005287;28;20226;-73
2023/03/12 00:27:19;;;;;;;2.43;1.37;;;1.00;99.90;;;;;;5004870;28;20205;-77
2023/03/12 00:29:48;;;;;;;1.50;1.13;;;1.00;99.90;;;;;;5005149;28;20677;-76
2023/03/12 00:32:15;;;;;;;3.43;1.10;;;1.00;99.90;;;;;;5003808;28;20656;-74
2023/03/12 00:34:43;;;;;;;3.57;1.27;;;1.00;99.90;;;;;;5007750;28;20758;-76
2023/03/12 00:37:10;;;;;;;2.80;2.20;;;1.10;99.90;;;;;;5015116;28;20316;-76
2023/03/12 00:39:37;;;;;;;3.78;1.75;;;1.20;99.90;;;;;;5017360;28;20460;-78
2023/03/12 00:42:04;;;;;;;1.53;1.43;;;1.30;99.90;;;;;;5010750;28;20209;-79
2023/03/12 00:44:31;;;;;;;1.10;1.10;;;1.20;99.90;;;;;;5015951;28;20237;-80
2023/03/12 00:46:59;;;;;;;2.70;1.60;;;1.20;99.90;;;;;;5015977;28;20284;-80
2023/03/12 00:49:26;;;;;;;3.33;1.73;;;1.10;99.90;;;;;;5016726;28;20279;-79
2023/03/12 00:51:53;;;;;;;3.60;1.40;;;1.10;99.90;;;;;;5018274;28;20470;-78
2023/03/12 00:54:20;;;;;;;2.00;1.30;;;1.10;99.90;;;;;;5014499;28;20681;-77
2023/03/12 00:56:47;;;;;;;1.20;1.10;;;1.20;99.90;;;;;;5017810;28;20234;-76
2023/03/12 00:59:14;;;;;;;6.47;1.47;;;1.10;99.90;;;;;;5015508;28;20197;-78
2023/03/12 01:01:42;;;;;;;1.27;1.10;;;1.20;99.90;;;;;;5016306;28;20275;-76
2023/03/12 01:04:10;;;;;;;1.23;1.13;;;1.20;99.90;;;;;;5015941;28;20201;-77
2023/03/12 01:06:37;;;;;;;3.13;1.40;;;1.20;99.90;;;;;;5013937;28;20207;-77
2023/03/12 01:09:05;;;;;;;1.83;1.30;;;1.30;99.90;;;;;;5018165;28;20241;-81
2023/03/12 01:11:33;;;;;;;2.63;1.30;;;1.30;99.90;;;;;;5015688;28;20316;-81
2023/03/12 01:14:00;;;;;;;1.53;1.10;;;1.30;99.90;;;;;;5015549;28;20324;-82
2023/03/12 01:16:29;;;;;;;1.43;1.20;;;1.30;99.90;;;;;;5017662;28;20336;-81
2023/03/12 01:18:56;;;;;;;3.03;0.90;;;1.40;99.90;;;;;;5013357;28;20197;-81
2023/03/12 01:21:25;;;;;;;1.90;1.30;;;1.30;99.90;;;;;;5014229;28;20932;-82
2023/03/12 01:23:52;;;;;;;2.97;1.27;;;1.30;99.90;;;;;;5018079;28;20249;-77
2023/03/12 01:26:18;;;;;;;1.33;0.83;;;1.30;99.90;;;;;;5009738;28;20226;-80
2023/03/12 01:28:46;;;;;;;1.77;1.17;;;1.30;99.90;;;;;;5006604;28;20209;-83
2023/03/12 01:31:14;;;;;;;2.83;1.50;;;1.30;99.90;;;;;;5007213;28;20210;-81
2023/03/12 01:33:42;;;;;;;1.40;1.13;;;1.30;99.90;;;;;;5007105;28;20284;-79
2023/03/12 01:36:17;;;;;;;1.40;1.30;;;1.30;99.90;;;;;;5008768;28;20283;-80
2023/03/12 01:38:45;;;;;;;1.90;1.60;;;1.30;99.90;;;;;;5006953;28;20237;-81
2023/03/12 01:41:12;;;;;;;2.33;1.53;;;1.30;99.90;;;;;;5007310;28;20306;-81
2023/03/12 01:43:40;;;;;;;1.70;1.13;;;1.30;99.90;;;;;;5008536;28;20641;-81
2023/03/12 01:46:22;;;;;;;3.40;1.33;;;1.30;99.90;;;;;;5010626;28;20212;-78
2023/03/12 01:48:54;;;;;;;2.60;1.10;;;1.30;99.90;;;;;;5009295;28;20197;-78
2023/03/12 01:51:25;;;;;;;1.27;1.13;;;1.30;99.90;;;;;;5009656;28;20236;-78
2023/03/12 01:53:57;;;;;;;1.73;0.93;;;1.30;99.90;;;;;;4990861;28;20267;-78
2023/03/12 01:56:27;;;;;;;1.90;1.50;;;1.40;99.90;;;;;;5011575;28;20280;-78
2023/03/12 01:58:58;;;;;;;1.80;1.20;;;1.30;99.90;;;;;;5026144;28;20198;-77
2023/03/12 02:01:25;;;;;;;1.83;1.40;;;1.30;99.90;;;;;;5010739;28;20293;-77
2023/03/12 02:03:53;;;;;;;1.17;1.07;;;1.30;99.90;;;;;;5010494;28;20223;-77
2023/03/12 02:06:25;;;;;;;1.93;1.47;;;1.30;99.90;;;;;;5010427;28;20300;-76
2023/03/12 02:08:53;;;;;;;1.73;1.30;;;1.30;99.90;;;;;;5009796;28;20240;-77
2023/03/12 02:11:20;;;;;;;1.77;1.40;;;1.30;99.90;;;;;;5004152;28;20206;-75
2023/03/12 02:13:47;;;;;;;4.43;1.17;;;1.30;99.90;;;;;;4990261;28;20296;-75
2023/03/12 02:16:14;;;;;;;2.60;1.60;;;1.30;99.90;;;;;;4990394;28;20570;-75
2023/03/12 02:18:41;;;;;;;3.17;1.83;;;1.30;99.90;;;;;;4990287;28;20281;-76
2023/03/12 02:21:15;;;;;;;2.77;1.67;;;1.30;99.90;;;;;;4990478;28;20217;-76
2023/03/12 02:23:47;;;;;;;5.17;1.67;;;1.20;99.90;;;;;;4993526;28;20271;-75
2023/03/12 02:26:17;;;;;;;3.90;1.40;;;1.20;99.90;;;;;;5009867;28;20208;-76
2023/03/12 02:28:45;;;;;;;3.37;1.50;;;1.20;99.90;;;;;;5009657;28;20206;-75
2023/03/12 02:31:15;;;;;;;3.43;1.40;;;1.20;99.90;;;;;;5009772;28;20238;-73
2023/03/12 02:33:42;;;;;;;1.93;1.17;;;1.20;99.90;;;;;;5008120;28;20260;-71
2023/03/12 02:36:09;;;;;;;2.23;1.50;;;1.20;99.90;;;;;;5008303;28;20297;-71
2023/03/12 02:38:40;;;;;;;2.13;1.50;;;1.20;99.90;;;;;;5009131;28;20299;-72
2023/03/12 02:41:12;;;;;;;1.43;1.13;;;1.20;99.90;;;;;;5009597;28;20296;-72
2023/03/12 02:43:44;;;;;;;2.13;1.27;;;1.20;99.90;;;;;;5009223;28;20688;-73
2023/03/12 02:46:12;;;;;;;3.30;1.70;;;1.20;99.90;;;;;;5009309;28;20293;-71
2023/03/12 02:48:38;;;;;;;1.70;1.50;;;1.20;99.90;;;;;;5009080;28;20631;-76
2023/03/12 02:51:06;;;;;;;4.33;1.57;;;1.10;99.90;;;;;;5009429;28;20241;-76
2023/03/12 02:53:32;;;;;;;3.97;1.67;;;1.10;99.90;;;;;;5008981;28;20293;-75
2023/03/12 02:55:59;;;;;;;2.17;1.50;;;1.10;99.90;;;;;;5008236;28;20201;-72
2023/03/12 02:58:26;;;;;;;3.10;1.80;;;1.10;99.90;;;;;;5008215;28;20597;-72
2023/03/12 03:00:54;;;;;;;3.07;1.60;;;1.00;99.90;;;;;;5008993;28;20219;-75
2023/03/12 03:03:21;;;;;;;1.47;1.27;;;1.00;99.90;;;;;;5009162;28;20209;-76
2023/03/12 03:05:48;;;;;;;5.67;1.83;;;1.00;99.90;;;;;;5008928;28;20252;-76
2023/03/12 03:08:15;;;;;;;3.57;1.40;;;1.00;99.90;;;;;;5008652;28;20209;-73
2023/03/12 03:10:42;;;;;;;2.60;1.60;;;1.00;99.90;;;;;;5008561;28;20620;-76
2023/03/12 03:13:09;;;;;;;3.20;1.40;;;1.00;99.90;;;;;;5008395;28;20292;-77
2023/03/12 03:15:37;;;;;;;2.63;1.40;;;1.00;99.90;;;;;;5008304;28;20300;-77
2023/03/12 03:18:06;;;;;;;1.50;1.40;;;1.00;99.90;;;;;;5008730;28;20257;-78
2023/03/12 03:20:33;;;;;;;2.00;1.20;;;0.90;99.90;;;;;;5008407;28;20255;-75
2023/03/12 03:23:00;;;;;;;1.87;1.70;;;0.90;99.90;;;;;;5008605;28;20210;-77
2023/03/12 03:25:27;;;;;;;1.60;1.20;;;0.80;99.90;;;;;;5008463;28;20400;-74
2023/03/12 03:27:54;;;;;;;3.00;1.53;;;0.80;99.90;;;;;;5008432;28;20209;-72
2023/03/12 03:30:21;;;;;;;2.33;1.53;;;0.80;99.90;;;;;;5008438;28;20607;-79
2023/03/12 03:32:49;;;;;;;2.00;1.40;;;0.80;99.90;;;;;;5008654;28;20309;-77
2023/03/12 03:35:18;;;;;;;1.93;1.27;;;0.80;99.90;;;;;;5008191;28;20205;-73
2023/03/12 03:37:45;;;;;;;2.40;1.37;;;0.70;99.90;;;;;;5024185;28;21070;-73
2023/03/12 03:40:12;;;;;;;3.23;1.30;;;0.70;99.90;;;;;;5028051;28;20295;-75
2023/03/12 03:42:40;;;;;;;2.97;1.47;;;0.60;99.90;;;;;;5011212;28;20324;-75
2023/03/12 03:45:09;;;;;;;2.10;1.53;;;0.60;99.90;;;;;;5007879;28;20213;-76
2023/03/12 03:47:36;;;;;;;1.20;1.10;;;0.60;99.90;;;;;;5007622;28;20209;-73
2023/03/12 03:50:04;;;;;;;4.20;1.40;;;0.60;99.90;;;;;;5007579;28;20217;-76
2023/03/12 03:52:32;;;;;;;2.03;1.40;;;0.60;99.90;;;;;;5007847;28;20252;-73
2023/03/12 03:54:59;;;;;;;2.80;1.17;;;0.60;99.90;;;;;;5008351;28;20300;-73
2023/03/12 03:57:27;;;;;;;2.53;1.67;;;0.60;99.90;;;;;;5007787;28;20316;-75
2023/03/12 03:59:53;;;;;;;1.87;1.50;;;0.60;99.90;;;;;;5007629;28;20296;-74
2023/03/12 04:02:21;;;;;;;5.27;1.73;;;0.50;99.90;;;;;;5007944;28;20688;-74
2023/03/12 04:04:48;;;;;;;4.17;1.43;;;0.50;99.90;;;;;;5008168;28;20202;-75
2023/03/12 04:07:15;;;;;;;1.27;1.27;;;0.50;99.90;;;;;;5007003;28;20332;-73
2023/03/12 04:09:44;;;;;;;3.53;1.93;;;0.50;99.90;;;;;;5007707;28;20320;-77
2023/03/12 04:12:11;;;;;;;1.67;1.43;;;0.50;99.90;;;;;;5007894;28;20730;-73
2023/03/12 04:14:40;;;;;;;3.70;2.03;;;0.50;99.90;;;;;;5007296;28;20850;-77
2023/03/12 04:17:08;;;;;;;2.43;1.90;;;0.50;99.90;;;;;;5007523;28;20198;-74
2023/03/12 04:19:35;;;;;;;2.40;2.00;;;0.50;99.90;;;;;;5007832;28;20209;-76
2023/03/12 04:22:02;;;;;;;5.07;2.20;;;0.50;99.90;;;;;;5007400;28;20851;-79
2023/03/12 04:24:29;;;;;;;3.07;1.97;;;0.40;99.90;;;;;;5007754;28;20205;-76
2023/03/12 04:26:57;;;;;;;1.90;1.80;;;0.40;99.90;;;;;;5007705;28;20308;-77
2023/03/12 04:29:24;;;;;;;4.37;2.10;;;0.40;99.90;;;;;;5007087;28;20304;-77
2023/03/12 04:31:51;;;;;;;2.53;2.27;;;0.40;99.90;;;;;;5007759;28;20213;-77
2023/03/12 04:34:18;;;;;;;1.90;1.80;;;0.30;99.90;;;;;;5007447;28;20683;-77
2023/03/12 04:36:46;;;;;;;2.70;2.23;;;0.30;99.90;;;;;;5007125;28;20664;-76
2023/03/12 04:39:14;;;;;;;2.93;2.00;;;0.30;99.90;;;;;;5007321;28;20237;-77
2023/03/12 04:41:41;;;;;;;2.63;2.07;;;0.40;99.90;;;;;;5007389;28;20292;-78
2023/03/12 04:44:09;;;;;;;3.30;1.90;;;0.30;99.90;;;;;;5007049;28;20201;-79
2023/03/12 04:46:36;;;;;;;2.00;1.90;;;0.30;99.90;;;;;;5006918;28;20209;-79
2023/03/12 04:49:03;;;;;;;2.97;2.07;;;0.30;99.90;;;;;;5006700;28;20210;-79
2023/03/12 04:51:31;;;;;;;2.77;1.77;;;0.30;99.90;;;;;;5006670;28;20655;-79
2023/03/12 04:53:58;;;;;;;1.80;1.70;;;0.30;99.90;;;;;;5007333;28;20292;-78
2023/03/12 04:56:25;;;;;;;1.97;1.87;;;0.30;99.90;;;;;;5007248;28;20635;-78
2023/03/12 04:58:52;;;;;;;7.70;2.10;;;0.30;99.90;;;;;;5006791;28;20225;-78
2023/03/12 05:01:26;;;;;;;3.57;1.80;;;0.30;99.90;;;;;;5007096;28;20249;-75
2023/03/12 05:03:54;;;;;;;2.83;1.77;;;0.20;99.90;;;;;;5006850;28;20291;-76
2023/03/12 05:06:22;;;;;;;3.50;1.83;;;0.20;99.90;;;;;;5007062;28;20292;-77
2023/03/12 05:08:49;;;;;;;2.07;1.67;;;0.20;99.90;;;;;;5006282;28;20742;-74
2023/03/12 05:11:17;;;;;;;2.73;1.70;;;0.20;99.90;;;;;;5006561;28;20688;-75
2023/03/12 05:13:44;;;;;;;1.97;1.70;;;0.30;99.90;;;;;;5006685;28;20256;-77
2023/03/12 05:16:12;;;;;;;2.30;1.50;;;0.30;99.90;;;;;;5006684;28;20237;-74
2023/03/12 05:18:41;;;;;;;2.93;1.40;;;0.30;99.90;;;;;;5007776;28;20237;-76
2023/03/12 05:21:11;;;;;;;2.23;1.73;;;0.30;99.90;;;;;;5010700;28;20213;-73
2023/03/12 05:23:41;;;;;;;3.93;1.43;;;0.30;99.90;;;;;;5010449;28;20304;-79
2023/03/12 05:26:08;;;;;;;2.90;1.73;;;0.40;99.90;;;;;;5010777;28;20297;-71
2023/03/12 05:28:35;;;;;;;1.90;1.70;;;0.30;99.90;;;;;;5010100;28;20696;-71
2023/03/12 05:31:08;;;;;;;3.37;2.00;;;0.30;99.90;;;;;;5010060;28;20289;-72
2023/03/12 05:33:35;;;;;;;1.80;1.70;;;0.30;99.90;;;;;;5010124;28;20285;-71
2023/03/12 05:36:04;;;;;;;4.40;1.60;;;0.30;99.90;;;;;;5012741;28;20213;-72
2023/03/12 05:38:31;;;;;;;1.77;1.60;;;0.20;99.90;;;;;;5012661;28;20865;-72
2023/03/12 05:40:59;;;;;;;5.60;1.63;;;0.20;99.90;;;;;;5010365;28;20220;-71
2023/03/12 05:43:27;;;;;;;2.73;1.60;;;0.20;99.90;;;;;;5009927;28;20212;-72
2023/03/12 05:45:54;;;;;;;3.07;1.50;;;0.20;99.90;;;;;;4990607;28;20300;-72
2023/03/12 05:48:21;;;;;;;5.43;2.00;;;0.20;99.90;;;;;;4990683;28;20309;-71
2023/03/12 05:50:47;;;;;;;2.50;1.53;;;0.20;99.90;;;;;;4990536;28;20556;-71
2023/03/12 05:53:16;;;;;;;4.83;1.50;;;0.20;99.90;;;;;;5005773;28;20202;-78
2023/03/12 05:55:43;;;;;;;1.83;1.73;;;0.20;99.90;;;;;;5009738;28;20605;-77
2023/03/12 05:58:10;;;;;;;1.77;1.43;;;0.30;99.90;;;;;;5009984;28;20332;-77
2023/03/12 06:00:37;;;;;;;2.13;1.40;;;0.30;99.90;;;;;;5010233;28;20215;-77
2023/03/12 06:03:04;;;;;;;2.23;1.50;;;0.30;99.90;;;;;;5010279;28;20279;-77
2023/03/12 06:05:32;;;;;;;2.37;1.30;;;0.40;99.90;;;;;;5009771;28;20206;-75
2023/03/12 06:07:59;;;;;;;3.07;1.40;;;0.50;99.90;;;;;;5009959;28;20204;-76
2023/03/12 06:10:28;;;;;;;1.30;1.20;;;0.40;99.90;;;;;;5009607;28;20233;-79
2023/03/12 06:12:55;;;;;;;1.80;1.60;;;0.30;99.90;;;;;;4991440;28;20631;-76
2023/03/12 06:15:22;;;;;;;3.27;2.20;;;0.30;99.90;;;;;;4990515;28;20214;-79
2023/03/12 06:17:49;;;;;;;3.17;2.60;;;0.30;99.90;;;;;;5002468;28;20229;-79
2023/03/12 06:20:16;;;;;;;4.10;3.70;;;0.30;99.90;;;;;;5009677;28;20300;-77
2023/03/12 06:22:43;;;;;;;3.80;2.23;;;0.20;99.90;;;;;;5009835;28;20676;-77
2023/03/12 06:25:10;;;;;;;1.80;1.70;;;0.20;99.90;;;;;;5009571;28;20300;-76
2023/03/12 06:27:39;;;;;;;7.17;2.20;;;0.30;99.90;;;;;;5009457;28;20237;-76
2023/03/12 06:30:09;;;;;;;7.07;1.97;;;0.20;99.90;;;;;;5007903;28;20209;-74
2023/03/12 06:32:36;;;;;;;1.70;1.60;;;0.20;99.90;;;;;;5009383;28;20292;-77
2023/03/12 06:35:03;;;;;;;1.63;1.53;;;0.20;99.90;;;;;;5009879;28;20289;-74
2023/03/12 06:37:30;;;;;;;2.57;1.73;;;0.30;99.90;;;;;;5011168;28;20236;-78
2023/03/12 06:39:57;;;;;;;1.37;1.30;;;0.30;99.90;;;;;;5009134;28;20328;-74
2023/03/12 06:42:25;;;;;;;2.37;1.40;;;0.40;99.90;;;;;;5009375;28;20214;-75
2023/03/12 06:44:53;;;;;;;3.40;1.47;;;0.40;99.90;;;;;;5009135;28;20224;-76
2023/03/12 06:47:20;;;;;;;1.93;1.37;;;0.40;99.90;;;;;;5009383;28;20614;-77
2023/03/12 06:49:47;;;;;;;1.70;1.60;;;0.40;99.90;;;;;;5009264;28;20590;-76
2023/03/12 06:52:14;;;;;;;1.50;1.40;;;0.40;99.90;;;;;;5009364;28;20296;-73
2023/03/12 06:54:41;;;;;;;3.40;1.67;;;0.40;99.90;;;;;;5008995;28;20205;-77
2023/03/12 06:57:08;;;;;;;2.13;1.63;;;0.50;99.90;;;;;;5009287;28;20256;-73
2023/03/12 06:59:35;;;;;;;3.13;1.70;;;0.50;99.90;;;;;;5008190;28;20324;-73
2023/03/12 07:02:03;;;;;;;2.33;1.80;;;0.60;99.90;;;;;;5008666;28;20288;-74
2023/03/12 07:04:30;;;;;;;5.53;1.97;;;0.60;99.90;;;;;;5008867;28;20233;-72
2023/03/12 07:06:57;;;;;;;4.27;2.20;;;0.60;99.90;;;;;;5008625;28;20280;-73
2023/03/12 07:09:24;;;;;;;3.27;2.20;;;0.60;99.90;;;;;;5008190;28;20272;-73
2023/03/12 07:11:51;;;;;;;4.37;2.20;;;0.60;99.90;;;;;;4998527;28;20296;-75
2023/03/12 07:14:19;;;;;;;2.30;2.10;;;0.70;99.90;;;;;;4991957;28;20206;-76
2023/03/12 07:16:45;;;;;;;2.50;2.17;;;0.70;99.90;;;;;;5008463;28;20297;-74
2023/03/12 07:19:14;;;;;;;3.20;2.40;;;0.80;99.90;;;;;;5008285;28;20279;-75
2023/03/12 07:21:41;;;;;;;5.43;2.40;;;0.80;99.90;;;;;;5008315;28;20217;-76
2023/03/12 07:24:08;;;;;;;3.00;2.80;;;0.80;99.90;;;;;;5008302;28;20300;-77
2023/03/12 07:26:36;;;;;;;3.97;2.60;;;0.90;99.90;;;;;;5008271;28;20232;-75
2023/03/12 07:29:03;;;;;;;2.10;1.93;;;0.90;99.90;;;;;;5008122;28;20241;-78
2023/03/12 07:31:31;;;;;;;2.70;2.50;;;1.00;99.90;;;;;;5008549;28;20209;-77
2023/03/12 07:33:58;;;;;;;3.57;2.27;;;1.00;99.90;;;;;;5008822;28;20296;-74
2023/03/12 07:36:26;;;;;;;2.87;2.40;;;1.10;99.90;;;;;;5008032;28;20222;-74
2023/03/12 07:38:53;;;;;;;2.57;2.07;;;1.20;99.90;;;;;;5008123;28;20328;-74
2023/03/12 07:41:20;;;;;;;2.53;1.70;;;1.30;99.90;;;;;;5007853;28;20209;-75
2023/03/12 07:43:46;;;;;;;2.07;1.80;;;1.40;99.90;;;;;;5007981;28;20288;-78
2023/03/12 07:46:13;;;;;;;4.70;1.67;;;1.50;99.90;;;;;;5008255;28;20289;-76
2023/03/12 07:48:40;;;;;;;2.53;2.10;;;1.50;99.90;;;;;;5007753;28;20296;-74
2023/03/12 07:51:08;;;;;;;3.03;2.10;;;1.60;99.90;;;;;;5008109;28;20300;-72
2023/03/12 07:53:36;;;;;;;3.87;1.97;;;1.70;99.90;;;;;;5007488;28;21046;-72
2023/03/12 07:56:04;;;;;;;2.77;1.87;;;1.70;99.90;;;;;;5008167;28;20244;-72
2023/03/12 07:58:31;;;;;;;2.80;1.90;;;1.80;99.90;;;;;;5007517;28;20311;-72
2023/03/12 08:00:58;;;;;;;4.00;2.20;;;2.00;99.90;;;;;;5007384;28;20743;-72
2023/03/12 08:03:25;;;;;;;3.13;1.90;;;2.00;99.90;;;;;;5007546;28;20260;-72
2023/03/12 08:06:00;;;;;;;1.73;1.63;;;2.10;99.90;;;;;;5007706;28;20271;-72
2023/03/12 08:08:28;;;;;;;2.33;2.13;;;2.10;99.90;;;;;;5007400;28;20255;-74
2023/03/12 08:10:56;;;;;;;3.87;2.00;;;2.20;99.90;;;;;;5007400;28;20296;-71
2023/03/12 08:13:24;;;;;;;2.60;1.70;;;2.20;99.90;;;;;;5007247;28;20224;-71
2023/03/12 08:15:51;;;;;;;4.00;2.07;;;2.30;99.90;;;;;;5007502;28;20630;-71
2023/03/12 08:18:19;;;;;;;3.50;2.10;;;2.30;99.90;;;;;;5006614;28;20848;-73
2023/03/12 08:20:49;;;;;;;4.07;2.10;;;2.40;99.90;;;;;;5020773;28;20197;-73
2023/03/12 08:23:16;;;;;;;4.07;2.37;;;2.40;99.90;;;;;;5027212;28;20312;-73
2023/03/12 08:25:45;;;;;;;4.07;2.00;;;2.30;99.90;;;;;;5022872;28;20667;-74
2023/03/12 08:28:13;;;;;;;2.43;1.90;;;2.40;99.90;;;;;;5007022;28;20303;-74
2023/03/12 08:30:46;;;;;;;3.53;2.00;;;2.40;99.90;;;;;;5007024;28;20826;-74
2023/03/12 08:33:13;;;;;;;2.47;2.27;;;2.40;99.90;;;;;;5006564;28;20259;-74
2023/03/12 08:35:40;;;;;;;3.50;2.13;;;2.50;99.90;;;;;;5007038;28;20320;-76
2023/03/12 08:38:07;;;;;;;3.27;1.87;;;2.60;99.90;;;;;;5006948;28;20229;-74
2023/03/12 08:40:34;;;;;;;3.77;2.20;;;2.70;99.90;;;;;;5006701;28;20335;-75
2023/03/12 08:43:01;;;;;;;4.20;1.93;;;2.70;99.90;;;;;;5004448;28;20300;-75
2023/03/12 08:45:30;;;;;;;2.60;2.33;;;2.80;99.90;;;;;;5006632;28;20774;-75
2023/03/12 08:47:57;;;;;;;6.27;2.30;;;2.90;99.90;;;;;;5006993;28;20300;-73
2023/03/12 08:50:27;;;;;;;2.37;2.07;;;3.00;99.90;;;;;;5006835;28;20679;-77
2023/03/12 08:52:54;;;;;;;4.10;2.10;;;3.10;99.90;;;;;;5007112;28;20205;-76
2023/03/12 08:55:22;;;;;;;3.77;1.87;;;3.10;99.90;;;;;;5013800;28;20226;-74
2023/03/12 08:57:49;;;;;;;3.03;2.00;;;3.10;99.90;;;;;;5020349;28;20204;-78
2023/03/12 09:00:17;;;;;;;5.13;1.93;;;3.10;99.90;;;;;;5016137;28;20324;-77
2023/03/12 09:02:46;;;;;;;3.90;1.77;;;3.10;99.90;;;;;;5012178;28;20295;-78
2023/03/12 09:05:13;;;;;;;2.00;1.70;;;3.20;99.90;;;;;;5019410;28;20205;-75
2023/03/12 09:07:41;;;;;;;2.13;1.63;;;3.30;99.90;;;;;;5018137;28;20295;-77
2023/03/12 09:10:10;;;;;;;4.30;1.63;;;3.40;99.90;;;;;;5015096;28;20673;-77
2023/03/12 09:12:37;;;;;;;2.50;2.23;;;3.50;99.90;;;;;;5017217;28;20232;-77
2023/03/12 09:15:06;;;;;;;1.93;1.70;;;3.60;99.90;;;;;;5020099;28;20204;-74
2023/03/12 09:17:33;;;;;;;3.83;1.67;;;3.70;99.90;;;;;;5020058;28;20208;-75
2023/03/12 09:20:01;;;;;;;1.63;1.50;;;3.70;99.90;;;;;;5018844;28;20244;-72
2023/03/12 09:22:29;;;;;;;3.00;1.40;;;3.70;99.90;;;;;;5016785;28;20297;-73
2023/03/12 09:24:56;;;;;;;3.70;1.50;;;3.80;99.90;;;;;;5017317;28;21590;-74
2023/03/12 09:27:23;;;;;;;1.60;1.50;;;3.90;99.90;;;;;;5019861;28;20202;-73
2023/03/12 09:29:50;;;;;;;2.20;1.40;;;3.90;99.90;;;;;;5018622;28;20208;-74
2023/03/12 09:32:17;;;;;;;4.27;1.60;;;3.90;99.90;;;;;;5017091;28;20210;-72
2023/03/12 09:34:44;;;;;;;1.80;1.50;;;4.00;99.90;;;;;;5019754;28;20213;-72
2023/03/12 09:37:12;;;;;;;2.63;1.77;;;4.00;99.90;;;;;;5019726;28;20676;-72
2023/03/12 09:39:39;;;;;;;2.23;1.70;;;3.90;99.90;;;;;;5016274;28;20316;-72
2023/03/12 09:42:13;;;;;;;2.60;1.23;;;3.90;99.90;;;;;;5009970;28;20293;-72
2023/03/12 09:44:45;;;;;;;2.00;1.40;;;4.00;99.90;;;;;;5023783;28;20336;-72
2023/03/12 09:47:25;;;;;;;1.97;1.40;;;4.10;99.90;;;;;;5027634;28;20295;-73
2023/03/12 09:49:56;;;;;;;1.80;1.00;;;4.20;99.90;;;;;;5027238;28;20201;-72
2023/03/12 09:52:30;;;;;;;2.23;0.90;;;4.30;99.90;;;;;;5013673;28;20216;-72
2023/03/12 09:55:03;;;;;;;1.10;1.00;;;4.40;99.90;;;;;;5027448;28;20725;-72
2023/03/12 09:57:30;;;;;;;6.00;1.27;;;4.50;99.90;;;;;;5027757;28;20272;-75
2023/03/12 09:59:57;;;;;;;1.37;1.13;;;4.50;99.90;;;;;;5027333;28;20323;-75
2023/03/12 10:02:50;;;;;;;3.60;1.63;;;4.60;99.90;;;;;;5013426;28;20402;-75
2023/03/12 10:05:24;;;;;;;1.27;1.10;;;4.70;99.90;;;;;;4988162;28;20669;-72
2023/03/12 10:07:57;;;;;;;1.53;1.27;;;4.80;99.90;;;;;;4988325;28;20198;-72
2023/03/12 10:10:37;;;;;;;2.70;1.00;;;4.90;99.90;;;;;;5014841;28;20783;-71
2023/03/12 10:13:22;;;;;;;1.40;1.27;;;4.90;99.90;;;;;;5006979;28;20663;-72
2023/03/12 10:15:58;;;;;;;4.10;1.10;;;5.00;99.90;;;;;;5007401;28;20221;-72
2023/03/12 10:18:36;;;;;;;4.10;1.30;;;5.10;99.90;;;;;;5007183;28;20201;-72
2023/03/12 10:21:16;;;;;;;1.87;0.83;;;5.20;99.90;;;;;;5007588;28;20231;-72
2023/03/12 10:23:57;;;;;;;2.10;0.87;;;5.30;99.90;;;;;;4997655;28;20225;-73
2023/03/12 10:26:30;;;;;;;1.90;0.87;;;5.40;99.90;;;;;;5007617;28;20205;-73
2023/03/12 10:29:00;;;;;;;2.20;0.90;;;5.50;99.90;;;;;;5006847;28;20285;-73
2023/03/12 10:31:32;;;;;;;1.57;0.80;;;5.60;99.90;;;;;;5007044;28;20292;-73
2023/03/12 10:34:00;;;;;;;0.77;0.77;;;5.80;99.90;;;;;;5006859;28;20209;-73
2023/03/12 10:36:36;;;;;;;0.70;0.70;;;5.80;99.90;;;;;;5009444;28;20754;-76
2023/03/12 10:39:07;;;;;;;1.60;1.03;;;5.90;99.90;;;;;;5010227;28;20649;-71
2023/03/12 10:41:34;;;;;;;2.80;1.00;;;6.00;99.90;;;;;;5007129;28;20208;-72
2023/03/12 10:44:05;;;;;;;2.63;0.97;;;6.10;99.90;;;;;;5006746;28;20280;-71
2023/03/12 10:46:50;;;;;;;2.03;1.40;;;6.10;99.90;;;;;;5006951;28;20798;-72
2023/03/12 10:49:26;;;;;;;2.20;1.43;;;6.10;99.90;;;;;;5007408;28;20224;-72
2023/03/12 10:51:55;;;;;;;2.27;1.30;;;6.10;99.90;;;;;;5006870;28;20289;-72
2023/03/12 10:54:29;;;;;;;1.57;1.30;;;6.20;99.90;;;;;;5007393;28;20290;-73
2023/03/12 10:56:56;;;;;;;2.80;1.20;;;6.30;99.90;;;;;;5007041;28;21030;-73
2023/03/12 10:59:28;;;;;;;3.27;1.40;;;6.50;99.90;;;;;;5006292;28;20313;-73
2023/03/12 11:01:55;;;;;;;1.97;1.50;;;6.50;99.90;;;;;;5006587;28;20312;-73
2023/03/12 11:04:25;;;;;;;2.70;1.10;;;6.50;99.90;;;;;;5006459;28;20289;-72
2023/03/12 11:07:06;;;;;;;1.30;1.20;;;6.50;99.90;;;;;;5006983;28;20333;-72
2023/03/12 11:09:34;;;;;;;3.60;1.50;;;6.50;99.90;;;;;;5006517;28;20781;-72
2023/03/12 11:12:01;;;;;;;3.23;1.70;;;6.50;99.90;;;;;;5006887;28;20747;-72
2023/03/12 11:14:29;;;;;;;3.27;1.50;;;6.50;99.90;;;;;;5006561;28;20232;-72
2023/03/12 11:17:10;;;;;;;3.37;1.47;;;6.30;99.90;;;;;;5005754;28;20288;-72
2023/03/12 11:19:39;;;;;;;3.20;1.60;;;6.20;99.90;;;;;;5006345;28;20221;-72
2023/03/12 11:22:10;;;;;;;2.03;1.60;;;6.20;99.90;;;;;;5006501;28;20616;-72
2023/03/12 11:24:56;;;;;;;3.70;1.90;;;6.20;99.90;;;;;;5006442;28;20206;-72
2023/03/12 11:27:31;;;;;;;3.23;1.60;;;6.10;99.90;;;;;;5006455;28;20225;-72
2023/03/12 11:30:00;;;;;;;1.60;1.50;;;6.30;99.90;;;;;;4998005;28;20847;-72
2023/03/12 11:32:32;;;;;;;2.87;1.60;;;6.40;99.90;;;;;;4994141;28;20256;-72
2023/03/12 11:35:00;;;;;;;1.90;1.60;;;6.40;99.90;;;;;;5006729;28;20555;-72
2023/03/12 11:37:41;;;;;;;1.30;1.20;;;6.40;99.90;;;;;;5005769;28;20710;-72
2023/03/12 11:40:22;;;;;;;4.47;1.47;;;6.50;99.90;;;;;;4986348;28;20307;-71
2023/03/12 11:43:01;;;;;;;3.47;1.40;;;6.50;99.90;;;;;;5004258;28;20217;-72
2023/03/12 11:45:36;;;;;;;1.90;1.43;;;6.50;99.90;;;;;;5006177;28;20284;-71
2023/03/12 11:48:14;;;;;;;3.87;1.50;;;6.40;99.90;;;;;;5013464;28;20289;-71
2023/03/12 11:50:54;;;;;;;2.60;1.37;;;6.40;99.90;;;;;;5013119;28;20189;-71
2023/03/12 11:53:32;;;;;;;2.53;1.60;;;6.40;99.90;;;;;;4990491;28;20220;-71
2023/03/12 11:56:24;;;;;;;3.40;1.80;;;6.40;99.90;;;;;;5001795;28;20213;-71
2023/03/12 11:59:21;;;;;;;1.40;1.27;;;6.40;99.90;;;;;;5005420;28;20200;-72
2023/03/12 12:02:01;;;;;;;1.90;1.50;;;6.50;99.90;;;;;;5005611;28;20208;-72
2023/03/12 12:05:02;;;;;;;3.43;2.37;;;6.50;99.90;;;;;;5005386;28;20674;-71
2023/03/12 12:07:41;;;;;;;3.20;2.00;;;6.60;99.90;;;;;;5005307;28;20233;-72
2023/03/12 12:10:20;;;;;;;1.87;1.60;;;6.50;99.90;;;;;;5005318;28;20257;-73
2023/03/12 12:12:55;;;;;;;1.67;1.30;;;6.50;99.90;;;;;;5004189;28;20209;-72
2023/03/12 12:15:33;;;;;;;2.30;1.67;;;6.50;99.90;;;;;;5012727;28;20287;-73
2023/03/12 12:18:14;;;;;;;1.47;1.37;;;6.50;99.90;;;;;;5012042;28;20280;-72
2023/03/12 12:20:48;;;;;;;4.50;1.70;;;6.50;99.90;;;;;;5004797;28;20330;-72
2023/03/12 12:23:17;;;;;;;1.97;1.50;;;6.60;99.90;;;;;;5007906;28;20201;-72
2023/03/12 12:26:01;;;;;;;1.50;1.20;;;6.60;99.90;;;;;;5005202;28;20209;-73
2023/03/12 12:29:08;;;;;;;1.37;1.23;;;6.60;99.90;;;;;;5004197;28;20277;-72
2023/03/12 12:31:43;;;;;;;2.27;1.40;;;6.60;99.90;;;;;;5005050;28;20284;-73
2023/03/12 12:34:42;;;;;;;2.47;1.47;;;6.60;99.90;;;;;;5004887;28;20978;-71
2023/03/12 12:37:22;;;;;;;1.87;1.77;;;6.50;99.90;;;;;;4963746;28;20341;-72
2023/03/12 12:39:56;;;;;;;2.10;1.53;;;6.50;99.90;;;;;;5000454;28;20202;-73
2023/03/12 12:42:28;;;;;;;1.97;1.37;;;6.50;99.90;;;;;;4990395;28;20263;-71
2023/03/12 12:44:59;;;;;;;2.23;1.37;;;6.50;99.90;;;;;;4999452;28;20629;-72
2023/03/12 12:47:35;;;;;;;1.70;1.60;;;6.50;99.90;;;;;;5005375;28;20296;-71
2023/03/12 12:50:04;;;;;;;1.63;1.53;;;6.50;99.90;;;;;;5005514;28;20292;-71
2023/03/12 12:52:31;;;;;;;2.00;1.83;;;6.50;99.90;;;;;;5005370;28;20244;-71
2023/03/12 12:55:05;;;;;;;1.70;1.60;;;6.50;99.90;;;;;;5005647;28;20241;-71
2023/03/12 12:57:37;;;;;;;1.50;1.40;;;6.40;99.90;;;;;;5004441;28;20695;-72
2023/03/12 13:00:23;;;;;;;1.80;1.70;;;6.30;99.90;;;;;;5004390;28;20669;-72
2023/03/12 13:02:51;;;;;;;2.03;1.50;;;6.30;99.90;;;;;;5004845;28;20332;-72
2023/03/12 13:05:22;;;;;;;1.73;1.47;;;6.20;99.90;;;;;;4993596;28;20210;-72
2023/03/12 13:07:49;;;;;;;1.63;1.23;;;6.20;99.90;;;;;;5004890;28;20202;-72
2023/03/12 13:10:39;;;;;;;1.67;1.40;;;6.30;99.90;;;;;;5004959;28;20324;-72